TAF KINW
AMD KINW 082042Z 0821/0918 28008G16KT P6SM SCT070 SCT200 FM082200 24015G25KT P6SM SCT060 FM090200 21009KT P6SM FEW060=
METAR KINW
WC KINW
WS KINW
WV KINW